Time;durP1;ratioP1;P1;durP2;ratioP2;P2;SDS_P1;SDS_P2;PMS_P1;PMS_P2;Temp;Humidity;BMP_temperature;BMP_pressure;BME280_temperature;BME280_humidity;BME280_pressure;Samples;Min_cycle;Max_cycle;Signal;HPM_P1;HPM_P2
2021/07/23 00:01:23;;;;;;;5.75;1.90;;;;;;;17.81;64.71;100462.88;1757843;81;20908;-68
2021/07/23 00:03:51;;;;;;;2.80;2.05;;;;;;;17.77;64.80;100460.98;1758112;81;20916;-68
2021/07/23 00:06:18;;;;;;;4.35;1.90;;;;;;;17.73;64.85;100461.41;1758020;80;20931;-69
2021/07/23 00:08:45;;;;;;;5.33;1.67;;;;;;;17.69;65.05;100460.84;1758040;80;22136;-69
2021/07/23 00:11:12;;;;;;;5.97;1.70;;;;;;;17.66;65.05;100460.31;1758247;81;20908;-69
2021/07/23 00:13:39;;;;;;;6.33;1.72;;;;;;;17.64;65.08;100460.94;1757918;81;20959;-69
2021/07/23 00:16:06;;;;;;;4.83;2.45;;;;;;;17.60;65.73;100465.68;1758411;80;21462;-69
2021/07/23 00:18:33;;;;;;;5.17;1.70;;;;;;;17.56;65.87;100461.17;1757956;81;20912;-68
2021/07/23 00:20:59;;;;;;;4.53;1.75;;;;;;;17.53;65.98;100463.25;1758159;81;22138;-69
2021/07/23 00:23:27;;;;;;;2.98;1.65;;;;;;;17.50;65.90;100462.22;1757891;81;20927;-69
2021/07/23 00:25:55;;;;;;;1.85;1.40;;;;;;;17.46;65.89;100462.98;1758161;81;21319;-69
2021/07/23 00:28:21;;;;;;;4.70;1.35;;;;;;;17.43;66.15;100477.86;1757922;81;20960;-68
2021/07/23 00:30:49;;;;;;;2.47;1.80;;;;;;;17.37;66.02;100467.30;1758258;81;21410;-69
2021/07/23 00:33:16;;;;;;;1.75;1.65;;;;;;;17.33;66.06;100476.51;1757926;80;21515;-67
2021/07/23 00:35:43;;;;;;;3.60;1.67;;;;;;;17.34;66.40;100485.29;1757984;80;21354;-68
2021/07/23 00:38:11;;;;;;;2.62;1.50;;;;;;;17.28;66.88;100482.72;1757998;81;20948;-67
2021/07/23 00:40:38;;;;;;;3.47;1.75;;;;;;;17.28;66.88;100482.72;1758053;81;20999;-68
2021/07/23 00:43:06;;;;;;;2.65;1.95;;;;;;;17.25;66.75;100476.36;1757946;81;20928;-69
2021/07/23 00:45:34;;;;;;;2.83;1.75;;;;;;;17.22;67.09;100476.64;1757865;81;21977;-67
2021/07/23 00:48:03;;;;;;;3.17;1.22;;;;;;;17.18;67.23;100482.70;1705211;83;20902;-67
2021/07/23 00:50:33;;;;;;;4.20;2.08;;;;;;;17.15;67.43;100484.31;1722208;83;20923;-68
2021/07/23 00:53:01;;;;;;;4.35;1.67;;;;;;;17.12;67.49;100479.77;1717595;82;20936;-68
2021/07/23 00:55:27;;;;;;;2.20;1.90;;;;;;;17.07;67.70;100477.53;1664535;84;21007;-68
2021/07/23 00:57:55;;;;;;;6.22;1.37;;;;;;;17.07;67.70;100477.53;1708850;84;21539;-68
2021/07/23 01:00:22;;;;;;;2.50;1.60;;;;;;;17.04;67.58;100478.31;1708827;82;20845;-69
2021/07/23 01:02:52;;;;;;;2.83;1.72;;;;;;;17.01;67.69;100482.54;1744592;80;21422;-69
2021/07/23 01:05:19;;;;;;;3.75;1.70;;;;;;;16.99;68.07;100483.53;1744507;81;21469;-69
2021/07/23 01:07:47;;;;;;;2.77;1.62;;;;;;;16.97;68.07;100480.17;1744572;81;20972;-69
2021/07/23 01:10:15;;;;;;;3.47;1.90;;;;;;;16.93;67.80;100478.77;1744741;82;21568;-69
2021/07/23 01:12:53;;;;;;;3.77;1.98;;;;;;;16.91;68.17;100478.56;1724375;81;20905;-68
2021/07/23 01:15:20;;;;;;;2.58;1.52;;;;;;;16.85;68.69;100479.95;1744815;81;20916;-69
2021/07/23 01:17:48;;;;;;;3.95;1.92;;;;;;;16.81;69.23;100476.36;1744979;81;20944;-69
2021/07/23 01:20:25;;;;;;;3.85;1.42;;;;;;;16.73;69.56;100483.16;1744738;82;21359;-69
2021/07/23 01:22:58;;;;;;;2.37;2.17;;;;;;;16.72;69.62;100481.49;1744986;82;21110;-70
2021/07/23 01:25:27;;;;;;;4.15;1.67;;;;;;;16.66;69.73;100482.52;1745049;82;20920;-69
2021/07/23 01:27:54;;;;;;;2.12;1.55;;;;;;;16.63;69.86;100492.03;1745054;80;20912;-70
2021/07/23 01:30:41;;;;;;;4.75;1.75;;;;;;;16.60;69.78;100490.50;1744694;82;20972;-69
2021/07/23 01:33:25;;;;;;;1.57;1.47;;;;;;;16.56;69.97;100497.89;1709122;82;20876;-69
2021/07/23 01:35:52;;;;;;;7.12;2.37;;;;;;;16.53;70.20;100503.43;1708884;84;21583;-69
2021/07/23 01:38:20;;;;;;;5.45;2.37;;;;;;;16.51;69.90;100500.08;1709141;84;21401;-69
2021/07/23 01:40:47;;;;;;;4.12;1.60;;;;;;;16.48;69.85;100496.88;1708966;84;20987;-69
2021/07/23 01:43:15;;;;;;;3.83;2.40;;;;;;;16.48;69.85;100496.88;1710277;81;20909;-70
2021/07/23 01:45:42;;;;;;;2.20;1.90;;;;;;;16.44;70.04;100494.97;1744631;82;20924;-69
2021/07/23 01:48:29;;;;;;;2.95;1.70;;;;;;;16.41;69.94;100496.58;1744671;80;21041;-69
2021/07/23 01:50:57;;;;;;;2.45;1.52;;;;;;;16.36;69.71;100495.65;1744596;82;20893;-70
2021/07/23 01:53:23;;;;;;;3.92;1.80;;;;;;;16.36;69.80;100504.05;1749460;81;20904;-69
2021/07/23 01:55:54;;;;;;;7.55;2.22;;;;;;;16.33;69.89;100505.65;1758063;81;20900;-69
2021/07/23 01:58:22;;;;;;;5.50;2.02;;;;;;;16.27;70.17;100510.97;1758294;80;21330;-68
2021/07/23 02:00:49;;;;;;;4.45;2.37;;;;;;;16.27;70.17;100510.97;1758063;81;21161;-69
2021/07/23 02:03:17;;;;;;;2.58;2.00;;;;;;;16.22;70.29;100511.03;1722024;83;20967;-69
2021/07/23 02:05:45;;;;;;;3.62;1.45;;;;;;;16.18;70.46;100511.76;1721870;83;20923;-68
2021/07/23 02:08:12;;;;;;;3.58;1.85;;;;;;;16.18;70.46;100511.76;1721988;83;20911;-68
2021/07/23 02:10:39;;;;;;;5.75;1.67;;;;;;;16.15;70.89;100516.84;1721960;83;21377;-68
2021/07/23 02:13:07;;;;;;;2.70;1.72;;;;;;;16.12;71.18;100515.78;1721856;83;21144;-68
2021/07/23 02:15:36;;;;;;;7.33;2.70;;;;;;;16.10;71.04;100515.08;1722155;83;20923;-69
2021/07/23 02:18:03;;;;;;;3.20;1.65;;;;;;;16.07;72.01;100513.16;1721995;83;20879;-71
2021/07/23 02:20:32;;;;;;;2.15;1.60;;;;;;;16.07;72.01;100513.16;1722228;83;21500;-70
2021/07/23 02:22:58;;;;;;;2.25;1.30;;;;;;;16.04;71.96;100504.17;1721944;83;20950;-70
2021/07/23 02:25:28;;;;;;;6.05;2.02;;;;;;;16.04;72.38;100512.11;1720395;83;21111;-72
2021/07/23 02:27:56;;;;;;;2.67;1.87;;;;;;;16.03;72.42;100514.38;1721894;83;21014;-71
2021/07/23 02:30:23;;;;;;;2.62;1.90;;;;;;;16.02;72.39;100519.34;1722070;83;21345;-70
2021/07/23 02:32:51;;;;;;;2.70;1.75;;;;;;;16.01;72.15;100518.50;1720789;83;20967;-70
2021/07/23 02:35:18;;;;;;;5.42;1.98;;;;;;;15.99;72.76;100519.61;1721884;83;20912;-71
2021/07/23 02:37:46;;;;;;;5.33;2.15;;;;;;;15.99;72.96;100520.44;1721258;83;21335;-70
2021/07/23 02:40:13;;;;;;;2.15;1.92;;;;;;;15.95;73.12;100522.48;1722056;82;21441;-71
2021/07/23 02:42:41;;;;;;;3.10;2.15;;;;;;;15.95;73.12;100522.48;1721927;83;20908;-70
2021/07/23 02:45:10;;;;;;;3.22;1.95;;;;;;;15.94;73.31;100528.77;1721849;83;20892;-70
2021/07/23 02:47:38;;;;;;;4.40;2.25;;;;;;;15.94;73.17;100537.16;1721865;83;21533;-68
2021/07/23 02:50:07;;;;;;;4.75;2.37;;;;;;;15.90;73.27;100525.19;1721798;82;21524;-69
2021/07/23 02:52:36;;;;;;;3.90;2.52;;;;;;;15.89;73.04;100528.29;1721111;83;20868;-69
2021/07/23 02:55:05;;;;;;;4.97;2.20;;;;;;;15.89;73.04;100528.29;1709942;83;20892;-69
2021/07/23 02:57:34;;;;;;;7.33;2.10;;;;;;;15.87;72.98;100531.55;1744556;81;20928;-70
2021/07/23 03:00:04;;;;;;;5.72;2.12;;;;;;;15.85;72.99;100541.44;1708830;83;20853;-69
2021/07/23 03:02:31;;;;;;;6.15;1.80;;;;;;;15.83;72.74;100533.25;1708809;84;21161;-69
2021/07/23 03:04:59;;;;;;;4.45;2.62;;;;;;;15.82;72.94;100539.03;1708791;84;20935;-68
2021/07/23 03:07:27;;;;;;;7.28;2.80;;;;;;;15.79;72.92;100536.66;1708769;84;20869;-69
2021/07/23 03:09:54;;;;;;;4.78;2.27;;;;;;;15.81;73.06;100542.66;1708689;84;21943;-68
2021/07/23 03:12:22;;;;;;;4.62;1.98;;;;;;;15.82;72.98;100539.52;1708968;84;21323;-68
2021/07/23 03:14:50;;;;;;;2.85;2.65;;;;;;;15.82;72.83;100537.70;1744590;81;21423;-68
2021/07/23 03:17:25;;;;;;;4.35;2.33;;;;;;;15.85;73.08;100538.80;1744667;82;20940;-68
2021/07/23 03:19:54;;;;;;;3.62;2.00;;;;;;;15.90;72.87;100542.37;1708804;83;20893;-67
2021/07/23 03:22:23;;;;;;;4.42;2.00;;;;;;;15.92;72.91;100534.66;1708999;82;20936;-69
2021/07/23 03:24:50;;;;;;;6.67;2.62;;;;;;;15.98;72.87;100540.39;1708755;84;20888;-69
2021/07/23 03:27:25;;;;;;;3.27;1.90;;;;;;;16.04;72.91;100544.69;1707460;84;21814;-73
2021/07/23 03:29:54;;;;;;;4.53;2.05;;;;;;;16.12;72.76;100544.89;1743731;81;20929;-70
2021/07/23 03:32:22;;;;;;;4.62;2.30;;;;;;;16.20;72.81;100546.03;1744515;82;21425;-71
2021/07/23 03:34:49;;;;;;;5.67;2.42;;;;;;;16.26;72.83;100546.36;1744525;81;20937;-70
2021/07/23 03:37:21;;;;;;;5.45;3.08;;;;;;;16.35;72.52;100541.59;1743462;81;20846;-71
2021/07/23 03:39:50;;;;;;;7.33;2.00;;;;;;;16.46;72.24;100538.52;1708752;83;21084;-70
2021/07/23 03:42:19;;;;;;;6.87;1.87;;;;;;;16.56;71.84;100548.19;1744620;80;20901;-69
2021/07/23 03:44:59;;;;;;;5.90;1.40;;;;;;;16.65;71.32;100543.91;1708260;83;20936;-70
2021/07/23 03:47:28;;;;;;;5.12;1.77;;;;;;;16.77;70.58;100545.47;1709062;82;20979;-70
2021/07/23 03:49:55;;;;;;;10.10;5.62;;;;;;;16.90;69.93;100545.77;1708831;84;20845;-70
2021/07/23 03:52:23;;;;;;;4.25;1.40;;;;;;;17.01;69.50;100546.13;1708963;84;21615;-71
2021/07/23 03:55:12;;;;;;;3.90;2.15;;;;;;;17.10;69.00;100549.31;1708746;82;20967;-71
2021/07/23 03:57:40;;;;;;;7.83;1.80;;;;;;;17.21;68.39;100546.54;1708790;84;20956;-70
2021/07/23 04:00:09;;;;;;;5.50;2.08;;;;;;;17.31;67.81;100546.05;1708780;84;20861;-70
2021/07/23 04:02:38;;;;;;;9.33;2.50;;;;;;;17.40;67.50;100545.72;1744269;81;21422;-70
2021/07/23 04:05:05;;;;;;;9.30;2.12;;;;;;;17.49;67.41;100545.37;1744713;81;22156;-71
2021/07/23 04:07:33;;;;;;;8.18;2.20;;;;;;;17.55;67.00;100541.67;1744538;80;20854;-70
2021/07/23 04:10:01;;;;;;;4.40;1.80;;;;;;;17.61;66.60;100542.95;1744697;82;20928;-70
2021/07/23 04:12:28;;;;;;;8.48;2.15;;;;;;;17.67;66.42;100545.52;1744539;81;20936;-70
2021/07/23 04:14:57;;;;;;;3.40;1.50;;;;;;;17.72;66.08;100539.29;1687845;84;20877;-69
2021/07/23 04:17:26;;;;;;;6.42;1.50;;;;;;;17.81;65.99;100533.17;1708792;82;20888;-71
2021/07/23 04:19:56;;;;;;;2.20;1.60;;;;;;;17.95;65.59;100535.91;1744413;82;20885;-72
2021/07/23 04:22:23;;;;;;;2.35;1.85;;;;;;;18.12;65.35;100537.83;1744812;80;21375;-71
2021/07/23 04:24:51;;;;;;;4.75;1.70;;;;;;;18.35;64.60;100538.32;1708579;83;20960;-70
2021/07/23 04:27:19;;;;;;;3.58;1.45;;;;;;;18.79;63.91;100531.95;1708709;84;21558;-72
2021/07/23 04:30:07;;;;;;;3.65;1.00;;;;;;;19.35;62.57;100539.38;1744468;80;21142;-69
2021/07/23 04:32:38;;;;;;;4.62;1.70;;;;;;;20.02;60.80;100529.16;1707461;84;20994;-69
2021/07/23 04:35:09;;;;;;;2.52;1.37;;;;;;;20.63;59.39;100531.86;1709012;82;21014;-69
2021/07/23 04:37:36;;;;;;;3.72;1.40;;;;;;;21.16;57.53;100531.22;1738502;82;20885;-70
2021/07/23 04:40:07;;;;;;;2.52;1.55;;;;;;;21.63;55.62;100531.98;1741262;81;20905;-69
2021/07/23 04:42:35;;;;;;;4.75;1.82;;;;;;;22.09;54.54;100536.30;1744771;80;21116;-70
2021/07/23 04:45:06;;;;;;;3.02;1.30;;;;;;;22.53;53.24;100542.58;1744468;81;20969;-69
2021/07/23 04:47:35;;;;;;;4.10;1.07;;;;;;;22.95;52.19;100540.08;1709172;83;20932;-70
2021/07/23 04:50:04;;;;;;;2.98;1.40;;;;;;;23.41;51.29;100552.22;1708659;82;21408;-70
2021/07/23 04:52:42;;;;;;;5.78;1.70;;;;;;;23.74;50.60;100546.08;1695148;83;20920;-72
2021/07/23 04:55:29;;;;;;;1.85;1.22;;;;;;;24.09;49.29;100544.32;1714961;83;22016;-72
2021/07/23 04:57:58;;;;;;;4.70;1.50;;;;;;;24.45;48.62;100545.77;1713404;83;20966;-68
2021/07/23 05:00:25;;;;;;;2.85;1.67;;;;;;;24.77;47.96;100551.30;1716465;82;21378;-74
2021/07/23 05:03:00;;;;;;;3.95;1.35;;;;;;;25.06;47.11;100558.98;1716250;83;20963;-70
2021/07/23 05:08:30;;;;;;;3.20;1.65;;;;;;;25.72;45.83;100543.25;1798670;79;22483;-71
2021/07/23 05:10:57;;;;;;;3.10;1.60;;;;;;;25.97;45.44;100549.09;1758265;81;21351;-71
2021/07/23 05:13:24;;;;;;;3.27;1.35;;;;;;;26.21;44.36;100548.66;1758256;81;21807;-71
2021/07/23 05:15:53;;;;;;;2.52;1.10;;;;;;;26.41;43.71;100544.75;1758058;81;20873;-70
2021/07/23 05:18:20;;;;;;;2.02;1.30;;;;;;;26.59;42.92;100544.25;1758896;81;20888;-70
2021/07/23 05:20:47;;;;;;;2.20;1.20;;;;;;;26.75;42.65;100551.67;1758277;81;20888;-70
2021/07/23 05:23:14;;;;;;;5.58;1.77;;;;;;;26.88;42.83;100547.17;1758629;81;20944;-69
2021/07/23 05:25:40;;;;;;;3.25;1.57;;;;;;;27.08;42.53;100549.94;1758285;80;21145;-69
2021/07/23 05:28:08;;;;;;;2.67;1.55;;;;;;;27.32;42.27;100553.11;1758749;81;20882;-69
2021/07/23 05:30:35;;;;;;;2.75;1.10;;;;;;;27.50;42.10;100552.53;1758328;81;20869;-69
2021/07/23 05:33:03;;;;;;;1.80;1.17;;;;;;;27.77;40.96;100549.85;1758402;80;21014;-68
2021/07/23 05:35:30;;;;;;;1.92;1.27;;;;;;;27.99;40.60;100547.31;1758255;80;20869;-70
2021/07/23 05:37:57;;;;;;;4.60;1.50;;;;;;;28.27;40.04;100552.45;1758553;81;21937;-69
2021/07/23 05:40:24;;;;;;;4.47;1.05;;;;;;;28.52;39.46;100553.14;1758261;80;20971;-69
2021/07/23 05:42:53;;;;;;;3.02;1.02;;;;;;;28.79;38.69;100549.86;1758561;81;20852;-70
2021/07/23 05:45:20;;;;;;;1.40;1.25;;;;;;;29.04;38.02;100548.59;1758228;81;21343;-71
2021/07/23 05:47:47;;;;;;;2.15;1.07;;;;;;;29.30;37.45;100546.30;1758581;80;20896;-75
2021/07/23 05:50:14;;;;;;;2.67;0.90;;;;;;;29.52;37.23;100550.80;1758372;81;21505;-75
2021/07/23 05:52:41;;;;;;;4.58;1.12;;;;;;;29.69;36.92;100547.62;1758644;81;21038;-77
2021/07/23 05:55:09;;;;;;;7.83;1.47;;;;;;;29.83;36.72;100548.33;1758709;81;20857;-77
2021/07/23 05:57:38;;;;;;;2.75;0.72;;;;;;;30.00;36.74;100546.73;1758288;80;20889;-76
2021/07/23 06:00:07;;;;;;;6.83;1.10;;;;;;;30.18;36.72;100554.05;1758457;81;21019;-76
2021/07/23 06:02:35;;;;;;;2.45;1.07;;;;;;;30.34;36.27;100549.42;1724560;81;21076;-74
2021/07/23 06:05:03;;;;;;;3.17;1.10;;;;;;;30.49;35.65;100545.53;1724781;81;20935;-75
2021/07/23 06:07:29;;;;;;;1.98;1.10;;;;;;;30.63;35.58;100553.79;1721287;82;20900;-77
2021/07/23 06:09:58;;;;;;;1.85;1.17;;;;;;;30.78;35.41;100550.17;1717093;82;20932;-75
2021/07/23 06:12:27;;;;;;;3.20;1.52;;;;;;;30.91;34.94;100546.50;1717011;83;20983;-75
2021/07/23 06:14:54;;;;;;;4.00;1.95;;;;;;;31.06;34.62;100547.46;1717064;82;21556;-76
2021/07/23 06:17:20;;;;;;;5.65;1.05;;;;;;;31.24;34.17;100549.80;1717148;83;20876;-77
2021/07/23 06:19:49;;;;;;;3.08;1.30;;;;;;;31.33;34.03;100556.03;1716914;83;20923;-79
2021/07/23 06:22:18;;;;;;;1.35;1.22;;;;;;;31.44;33.71;100559.02;1716601;83;21378;-78
2021/07/23 06:24:45;;;;;;;4.05;1.07;;;;;;;31.55;33.68;100555.51;1716631;83;20947;-76
2021/07/23 06:27:12;;;;;;;4.45;1.30;;;;;;;31.53;32.77;100560.37;1716639;83;21132;-77
2021/07/23 06:29:39;;;;;;;2.50;1.20;;;;;;;31.49;33.43;100562.70;1716819;83;20856;-78
2021/07/23 06:32:07;;;;;;;4.28;1.20;;;;;;;31.65;34.09;100561.73;1716488;82;20928;-74
2021/07/23 06:34:34;;;;;;;2.90;1.35;;;;;;;31.81;33.53;100561.86;1717081;83;20908;-77
2021/07/23 06:37:03;;;;;;;4.70;1.07;;;;;;;32.00;33.38;100560.45;1716562;83;20979;-77
2021/07/23 06:39:30;;;;;;;4.12;1.12;;;;;;;32.18;33.20;100559.51;1716883;83;21800;-76
2021/07/23 06:41:59;;;;;;;1.90;1.25;;;;;;;32.34;32.54;100554.70;1716581;83;20880;-75
2021/07/23 06:44:29;;;;;;;1.25;1.02;;;;;;;32.49;32.35;100561.01;1716638;82;21394;-76
2021/07/23 06:46:55;;;;;;;4.65;1.05;;;;;;;32.63;32.01;100561.59;1716636;83;21362;-75
2021/07/23 06:49:22;;;;;;;2.65;1.25;;;;;;;32.76;32.11;100561.33;1716910;83;21354;-75
2021/07/23 06:51:49;;;;;;;2.55;1.47;;;;;;;32.90;31.04;100565.94;1716544;83;21651;-75
2021/07/23 06:54:16;;;;;;;2.87;0.93;;;;;;;33.02;31.12;100560.48;1716827;83;21437;-74
2021/07/23 06:56:44;;;;;;;1.82;1.12;;;;;;;33.18;31.05;100555.64;1752586;81;20952;-75
2021/07/23 06:59:11;;;;;;;1.47;0.80;;;;;;;33.31;30.79;100557.78;1752934;82;21384;-75
2021/07/23 07:01:38;;;;;;;3.72;1.98;;;;;;;33.37;30.56;100558.98;1752756;80;20928;-74
2021/07/23 07:04:05;;;;;;;1.65;1.12;;;;;;;33.44;30.89;100556.94;1752521;80;22169;-74
2021/07/23 07:06:32;;;;;;;3.20;1.10;;;;;;;33.58;29.83;100559.34;1752518;82;20940;-76
2021/07/23 07:09:00;;;;;;;2.50;1.30;;;;;;;33.56;28.96;100553.31;1757716;81;21442;-77
2021/07/23 07:11:28;;;;;;;1.82;1.17;;;;;;;33.47;29.64;100548.00;1757953;80;20897;-71
2021/07/23 07:13:55;;;;;;;2.05;1.00;;;;;;;33.51;29.70;100549.98;1757908;80;21437;-72
2021/07/23 07:16:22;;;;;;;2.83;1.30;;;;;;;33.54;29.34;100551.38;1757946;81;21154;-72
2021/07/23 07:18:50;;;;;;;7.42;1.30;;;;;;;33.57;29.60;100554.44;1757867;80;20924;-72
2021/07/23 07:21:17;;;;;;;2.87;1.02;;;;;;;33.63;29.18;100554.00;1758333;81;20909;-71
2021/07/23 07:23:45;;;;;;;2.50;0.88;;;;;;;33.75;27.92;100553.91;1757864;81;20979;-72
2021/07/23 07:26:12;;;;;;;1.77;0.95;;;;;;;33.77;28.59;100551.26;1758191;80;21332;-72
2021/07/23 07:28:40;;;;;;;3.40;0.90;;;;;;;33.78;27.82;100555.61;1757909;81;21138;-72
2021/07/23 07:31:07;;;;;;;2.87;0.98;;;;;;;33.75;26.58;100560.71;1758028;81;21068;-72
2021/07/23 07:33:37;;;;;;;1.35;0.82;;;;;;;33.40;26.64;100554.41;1757751;81;21492;-71
2021/07/23 07:36:05;;;;;;;2.10;0.90;;;;;;;33.11;26.99;100550.90;1757779;81;21480;-72
2021/07/23 07:38:32;;;;;;;2.00;0.93;;;;;;;33.04;28.02;100555.63;1695574;83;20896;-72
2021/07/23 07:41:02;;;;;;;2.62;1.00;;;;;;;33.16;28.79;100549.63;1722149;83;22131;-73
2021/07/23 07:43:29;;;;;;;2.50;0.95;;;;;;;33.42;27.80;100546.83;1721782;82;20868;-74
2021/07/23 07:45:56;;;;;;;1.15;0.72;;;;;;;33.62;27.82;100552.37;1722125;83;20943;-72
2021/07/23 07:48:23;;;;;;;1.85;0.80;;;;;;;33.83;28.07;100556.23;1721674;82;21014;-72
2021/07/23 07:50:50;;;;;;;1.82;0.68;;;;;;;34.06;27.46;100551.97;1722308;83;20868;-72
2021/07/23 07:53:17;;;;;;;4.97;0.93;;;;;;;34.10;27.06;100552.81;1721811;83;21503;-72
2021/07/23 07:55:44;;;;;;;1.98;0.68;;;;;;;34.00;26.19;100556.23;1721664;83;21063;-72
2021/07/23 07:58:11;;;;;;;4.25;0.75;;;;;;;33.94;26.35;100563.47;1721811;83;20837;-72
2021/07/23 08:00:39;;;;;;;1.50;0.88;;;;;;;34.03;26.52;100561.16;1721485;82;20947;-73
2021/07/23 08:03:06;;;;;;;2.67;0.53;;;;;;;34.14;26.37;100561.63;1721903;83;20939;-72
2021/07/23 08:05:33;;;;;;;1.55;0.65;;;;;;;34.26;26.55;100559.63;1722090;83;21110;-73
2021/07/23 08:08:02;;;;;;;0.65;0.53;;;;;;;34.42;25.83;100553.85;1716189;82;20908;-73
2021/07/23 08:10:31;;;;;;;4.12;0.68;;;;;;;34.47;25.64;100557.18;1708895;84;20897;-73
2021/07/23 08:12:57;;;;;;;1.22;0.50;;;;;;;34.59;25.67;100557.86;1708858;82;20908;-71
2021/07/23 08:15:26;;;;;;;2.30;0.95;;;;;;;34.60;25.47;100564.98;1708927;84;21513;-73
2021/07/23 08:17:53;;;;;;;2.50;0.50;;;;;;;34.66;25.16;100565.36;1708789;83;21951;-75
2021/07/23 08:20:20;;;;;;;5.83;1.52;;;;;;;34.70;24.67;100562.12;1708621;84;21335;-79
2021/07/23 08:22:48;;;;;;;2.27;0.62;;;;;;;34.55;24.62;100567.64;1709020;84;20909;-75
2021/07/23 08:25:16;;;;;;;2.10;0.80;;;;;;;34.37;24.42;100567.38;1744761;81;20878;-73
2021/07/23 08:27:42;;;;;;;2.02;0.68;;;;;;;34.34;24.79;100573.34;1744679;80;21023;-75
2021/07/23 08:30:10;;;;;;;0.60;0.28;;;;;;;34.32;24.36;100573.31;1744940;82;21492;-77
2021/07/23 08:32:37;;;;;;;2.20;0.90;;;;;;;34.14;23.77;100572.52;1744763;81;20916;-77
2021/07/23 08:35:05;;;;;;;3.05;0.50;;;;;;;33.82;24.16;100573.64;1744659;82;20941;-75
2021/07/23 08:37:33;;;;;;;1.17;0.30;;;;;;;33.73;25.16;100566.94;1744599;82;21039;-75
2021/07/23 08:40:05;;;;;;;0.98;0.40;;;;;;;33.77;24.51;100560.78;1744820;82;20996;-76
2021/07/23 08:42:33;;;;;;;0.30;0.30;;;;;;;33.63;24.57;100562.16;1745012;80;21785;-77
2021/07/23 08:45:02;;;;;;;0.47;0.40;;;;;;;33.17;24.59;100564.03;1744854;81;20873;-76
2021/07/23 08:47:29;;;;;;;1.92;0.42;;;;;;;32.83;25.08;100568.80;1744949;82;20916;-77
2021/07/23 08:49:57;;;;;;;3.45;0.80;;;;;;;32.80;25.50;100562.50;1744815;82;20893;-78
2021/07/23 08:52:48;;;;;;;0.42;0.40;;;;;;;32.89;25.72;100559.41;1745349;81;21367;-75
2021/07/23 08:55:16;;;;;;;3.12;1.05;;;;;;;32.88;25.04;100570.78;1744779;81;21990;-76
2021/07/23 08:57:44;;;;;;;1.87;0.55;;;;;;;32.88;25.84;100559.92;1744453;82;20940;-77
2021/07/23 09:00:20;;;;;;;3.42;0.60;;;;;;;32.96;25.54;100568.23;1744891;80;20881;-80
2021/07/23 09:03:09;;;;;;;1.42;0.50;;;;;;;32.80;25.58;100561.14;1744804;81;20948;-78
2021/07/23 09:05:39;;;;;;;4.30;0.70;;;;;;;32.85;26.00;100560.95;1744610;81;20885;-78
2021/07/23 09:08:15;;;;;;;1.55;0.62;;;;;;;32.88;24.81;100561.28;1744196;81;21130;-78
2021/07/23 09:10:43;;;;;;;5.92;0.62;;;;;;;32.68;25.44;100562.23;1744466;82;21351;-80
2021/07/23 09:13:11;;;;;;;3.95;0.53;;;;;;;32.59;25.29;100563.13;1744722;82;20921;-76
2021/07/23 09:15:45;;;;;;;5.10;0.45;;;;;;;32.50;25.75;100555.86;1744557;81;21056;-81
2021/07/23 09:18:32;;;;;;;0.95;0.40;;;;;;;32.69;26.53;100560.64;1734443;82;20853;-79
2021/07/23 09:21:00;;;;;;;2.08;0.82;;;;;;;32.79;25.30;100554.58;1744568;81;21365;-76
2021/07/23 09:23:39;;;;;;;0.90;0.60;;;;;;;32.73;25.64;100561.00;1744586;81;20913;-77
2021/07/23 09:26:16;;;;;;;0.30;0.30;;;;;;;32.63;25.82;100556.16;1744545;81;21532;-75
2021/07/23 09:28:45;;;;;;;2.12;0.50;;;;;;;32.63;25.46;100554.80;1744734;81;20948;-76
2021/07/23 09:31:23;;;;;;;0.80;0.57;;;;;;;32.75;25.52;100557.48;1744738;82;20889;-78
2021/07/23 09:33:54;;;;;;;0.85;0.40;;;;;;;32.88;25.83;100555.03;1744707;81;21745;-77
2021/07/23 09:36:20;;;;;;;4.42;0.30;;;;;;;33.01;25.32;100552.02;1744459;80;20881;-76
2021/07/23 09:38:48;;;;;;;2.65;0.40;;;;;;;33.11;25.19;100550.90;1744635;82;20869;-77
2021/07/23 09:41:25;;;;;;;1.95;0.40;;;;;;;33.13;25.49;100555.56;1744610;82;20976;-77
2021/07/23 09:44:04;;;;;;;2.47;0.50;;;;;;;33.11;25.44;100554.16;1744422;82;21030;-73
2021/07/23 09:46:35;;;;;;;1.32;0.53;;;;;;;33.19;25.75;100546.41;1749158;80;21279;-73
2021/07/23 09:49:30;;;;;;;1.37;0.40;;;;;;;33.21;25.22;100551.61;1744268;81;20933;-79
2021/07/23 09:52:05;;;;;;;0.93;0.50;;;;;;;33.24;25.20;100548.42;1744521;81;20909;-76
2021/07/23 09:54:33;;;;;;;5.67;1.07;;;;;;;33.25;25.20;100550.06;1744525;82;21019;-75
2021/07/23 09:57:03;;;;;;;2.08;0.88;;;;;;;33.27;24.50;100550.64;1744645;82;20869;-75
2021/07/23 09:59:56;;;;;;;3.02;0.72;;;;;;;33.15;23.74;100543.06;1744643;81;22308;-76
2021/07/23 10:02:23;;;;;;;1.92;0.70;;;;;;;32.90;24.53;100537.95;1744645;82;21003;-73
2021/07/23 10:05:05;;;;;;;2.98;0.40;;;;;;;32.71;24.80;100542.76;1744670;80;21386;-74
2021/07/23 10:07:59;;;;;;;2.85;0.57;;;;;;;32.75;25.07;100541.18;1744573;81;20936;-74
2021/07/23 10:10:26;;;;;;;2.65;0.68;;;;;;;32.88;25.40;100536.83;1744731;80;21391;-74
2021/07/23 10:12:53;;;;;;;6.67;0.62;;;;;;;33.03;25.18;100533.05;1744769;82;22089;-75
2021/07/23 10:15:21;;;;;;;2.50;0.68;;;;;;;33.05;25.17;100531.45;1744592;81;20885;-74
2021/07/23 10:17:48;;;;;;;1.32;0.68;;;;;;;32.93;24.79;100538.30;1744750;82;20901;-75
2021/07/23 10:20:20;;;;;;;2.40;0.45;;;;;;;32.70;24.76;100532.94;1744606;82;20897;-74
2021/07/23 10:22:53;;;;;;;1.98;0.62;;;;;;;32.50;25.14;100536.85;1744757;82;21402;-76
2021/07/23 10:25:24;;;;;;;;;;;;;;;32.51;25.40;100537.16;1747281;82;21138;-76
2021/07/23 10:27:51;;;;;;;1.98;0.82;;;;;;;32.39;24.99;100532.27;1744804;81;20093;-74
2021/07/23 10:30:38;;;;;;;1.00;0.40;;;;;;;32.15;25.38;100532.32;1744676;82;20932;-74
2021/07/23 10:33:05;;;;;;;2.15;0.25;;;;;;;32.15;25.90;100536.89;1744891;80;20980;-74
2021/07/23 10:35:34;;;;;;;3.02;0.50;;;;;;;32.28;26.39;100535.30;1687672;84;20952;-73
2021/07/23 10:38:01;;;;;;;1.70;0.45;;;;;;;32.42;25.60;100535.34;1709069;82;21511;-74
2021/07/23 10:40:38;;;;;;;1.45;0.50;;;;;;;32.62;25.40;100538.23;1708806;84;20873;-75
2021/07/23 10:43:35;;;;;;;4.30;0.80;;;;;;;32.73;24.72;100536.55;1709017;82;20920;-74
2021/07/23 10:46:03;;;;;;;1.85;0.60;;;;;;;32.67;24.18;100541.05;1744284;81;21374;-73
2021/07/23 10:48:49;;;;;;;2.95;0.98;;;;;;;32.35;23.94;100533.81;1744829;81;20916;-72
2021/07/23 10:51:48;;;;;;;0.65;0.40;;;;;;;32.19;24.81;100536.72;1744241;80;21789;-73
2021/07/23 10:54:20;;;;;;;0.33;0.30;;;;;;;32.29;25.25;100533.42;1744464;81;21386;-73
2021/07/23 10:57:01;;;;;;;1.10;0.57;;;;;;;32.42;25.41;100538.06;1744860;80;20969;-74
2021/07/23 10:59:48;;;;;;;1.95;0.50;;;;;;;32.50;24.39;100531.42;1744855;81;20897;-75
2021/07/23 11:02:21;;;;;;;1.67;0.95;;;;;;;32.36;24.19;100530.86;1744768;80;21398;-74
2021/07/23 11:04:51;;;;;;;2.15;0.50;;;;;;;32.04;24.47;100518.73;1745031;80;21114;-74
2021/07/23 11:07:26;;;;;;;4.47;0.40;;;;;;;31.81;24.92;100525.78;1744807;81;20873;-77
2021/07/23 11:09:54;;;;;;;5.72;0.80;;;;;;;31.71;25.02;100525.56;1714197;82;21413;-76
2021/07/23 11:12:31;;;;;;;3.45;0.50;;;;;;;31.49;25.27;100520.69;1716544;82;20911;-77
2021/07/23 11:15:07;;;;;;;2.75;0.40;;;;;;;31.37;26.58;100522.50;1716898;82;20943;-76
2021/07/23 11:17:56;;;;;;;4.03;0.70;;;;;;;31.45;26.42;100515.44;1716414;83;21384;-76
2021/07/23 11:20:33;;;;;;;2.30;0.47;;;;;;;31.63;26.18;100511.80;1716534;82;21018;-76
2021/07/23 11:22:59;;;;;;;2.45;0.40;;;;;;;31.66;26.66;100517.28;1716169;82;20943;-76
2021/07/23 11:25:26;;;;;;;1.37;0.70;;;;;;;31.58;26.76;100511.16;1716289;83;20999;-75
2021/07/23 11:28:04;;;;;;;1.57;0.88;;;;;;;31.65;26.95;100511.58;1715995;83;20979;-77
2021/07/23 11:30:43;;;;;;;0.72;0.55;;;;;;;31.63;26.60;100515.87;1715530;83;20892;-77
2021/07/23 11:33:07;;;;;;;2.92;0.70;;;;;;;31.43;26.07;100503.99;1715961;82;20963;-76
2021/07/23 11:35:42;;;;;;;0.80;0.30;;;;;;;31.25;26.82;100511.64;1716365;83;20916;-75
2021/07/23 11:38:12;;;;;;;2.25;0.53;;;;;;;31.10;27.17;100500.41;1716719;83;20864;-74
2021/07/23 11:40:45;;;;;;;3.42;0.60;;;;;;;30.98;27.82;100505.79;1716437;83;21003;-75